sensor_id;sensor_type;location;lat;lon;timestamp;pressure;altitude;pressure_sealevel;temperature;humidity
59531;BME280;45349;48.692;8.186;2023-07-29T00:02:07;98191.88;;;18.78;100.00
59531;BME280;45349;48.692;8.186;2023-07-29T00:04:33;98195.13;;;18.80;100.00
59531;BME280;45349;48.692;8.186;2023-07-29T00:07:00;98188.81;;;18.81;100.00
59531;BME280;45349;48.692;8.186;2023-07-29T00:09:26;98193.75;;;18.78;100.00
59531;BME280;45349;48.692;8.186;2023-07-29T00:11:54;98186.59;;;18.78;100.00
59531;BME280;45349;48.692;8.186;2023-07-29T00:14:21;98185.84;;;18.71;100.00
59531;BME280;45349;48.692;8.186;2023-07-29T00:16:47;98176.13;;;18.65;100.00
59531;BME280;45349;48.692;8.186;2023-07-29T00:19:14;98180.81;;;18.63;100.00
59531;BME280;45349;48.692;8.186;2023-07-29T00:21:40;98176.38;;;18.56;100.00
59531;BME280;45349;48.692;8.186;2023-07-29T00:24:07;98175.59;;;18.56;100.00
59531;BME280;45349;48.692;8.186;2023-07-29T00:26:33;98175.75;;;18.61;100.00
59531;BME280;45349;48.692;8.186;2023-07-29T00:29:02;98176.88;;;18.72;100.00
59531;BME280;45349;48.692;8.186;2023-07-29T00:31:29;98186.50;;;18.98;100.00
59531;BME280;45349;48.692;8.186;2023-07-29T00:33:56;98182.22;;;18.97;100.00
59531;BME280;45349;48.692;8.186;2023-07-29T00:36:23;98184.22;;;19.02;100.00
59531;BME280;45349;48.692;8.186;2023-07-29T00:38:50;98187.31;;;18.92;100.00
59531;BME280;45349;48.692;8.186;2023-07-29T00:41:18;98186.13;;;18.88;100.00
59531;BME280;45349;48.692;8.186;2023-07-29T00:43:45;98180.84;;;18.88;100.00
59531;BME280;45349;48.692;8.186;2023-07-29T00:46:13;98177.22;;;18.82;100.00
59531;BME280;45349;48.692;8.186;2023-07-29T00:48:41;98183.69;;;18.86;100.00
59531;BME280;45349;48.692;8.186;2023-07-29T00:51:07;98175.16;;;18.84;100.00
59531;BME280;45349;48.692;8.186;2023-07-29T00:53:34;98173.72;;;18.88;100.00
59531;BME280;45349;48.692;8.186;2023-07-29T00:56:01;98173.94;;;18.87;100.00
59531;BME280;45349;48.692;8.186;2023-07-29T00:58:27;98172.31;;;18.86;100.00
59531;BME280;45349;48.692;8.186;2023-07-29T01:00:55;98165.63;;;18.83;100.00
59531;BME280;45349;48.692;8.186;2023-07-29T01:03:23;98158.06;;;18.87;100.00
59531;BME280;45349;48.692;8.186;2023-07-29T01:05:59;98155.78;;;18.91;100.00
59531;BME280;45349;48.692;8.186;2023-07-29T01:08:33;98146.47;;;18.88;100.00
59531;BME280;45349;48.692;8.186;2023-07-29T01:11:12;98143.75;;;18.95;100.00
59531;BME280;45349;48.692;8.186;2023-07-29T01:13:46;98138.16;;;18.84;100.00
59531;BME280;45349;48.692;8.186;2023-07-29T01:16:17;98146.59;;;18.74;100.00
59531;BME280;45349;48.692;8.186;2023-07-29T01:18:49;98141.72;;;18.71;100.00
59531;BME280;45349;48.692;8.186;2023-07-29T01:21:19;98151.28;;;18.72;100.00
59531;BME280;45349;48.692;8.186;2023-07-29T01:23:52;98146.31;;;18.83;100.00
59531;BME280;45349;48.692;8.186;2023-07-29T01:26:18;98154.25;;;18.83;100.00
59531;BME280;45349;48.692;8.186;2023-07-29T01:28:45;98142.84;;;18.82;100.00
59531;BME280;45349;48.692;8.186;2023-07-29T01:31:16;98144.25;;;18.85;100.00
59531;BME280;45349;48.692;8.186;2023-07-29T01:33:51;98136.31;;;18.85;100.00
59531;BME280;45349;48.692;8.186;2023-07-29T01:36:21;98134.91;;;18.82;100.00
59531;BME280;45349;48.692;8.186;2023-07-29T01:38:51;98143.50;;;18.78;100.00
59531;BME280;45349;48.692;8.186;2023-07-29T01:41:20;98143.94;;;18.74;100.00
59531;BME280;45349;48.692;8.186;2023-07-29T01:43:47;98144.38;;;18.71;100.00
59531;BME280;45349;48.692;8.186;2023-07-29T01:46:14;98144.13;;;18.73;100.00
59531;BME280;45349;48.692;8.186;2023-07-29T01:48:41;98142.75;;;18.70;100.00
59531;BME280;45349;48.692;8.186;2023-07-29T01:51:09;98137.38;;;18.77;100.00
59531;BME280;45349;48.692;8.186;2023-07-29T01:53:37;98140.94;;;18.89;100.00
59531;BME280;45349;48.692;8.186;2023-07-29T01:56:05;98143.16;;;18.93;100.00
59531;BME280;45349;48.692;8.186;2023-07-29T01:58:33;98133.59;;;18.98;100.00
59531;BME280;45349;48.692;8.186;2023-07-29T02:01:00;98143.75;;;19.01;100.00
59531;BME280;45349;48.692;8.186;2023-07-29T02:03:26;98147.19;;;19.02;100.00
59531;BME280;45349;48.692;8.186;2023-07-29T02:05:53;98143.94;;;19.00;100.00
59531;BME280;45349;48.692;8.186;2023-07-29T02:08:20;98149.47;;;18.98;100.00
59531;BME280;45349;48.692;8.186;2023-07-29T02:10:46;98139.28;;;18.95;100.00
59531;BME280;45349;48.692;8.186;2023-07-29T02:13:15;98139.72;;;18.92;100.00
59531;BME280;45349;48.692;8.186;2023-07-29T02:15:42;98132.44;;;18.87;100.00
59531;BME280;45349;48.692;8.186;2023-07-29T02:18:09;98121.25;;;18.85;100.00
59531;BME280;45349;48.692;8.186;2023-07-29T02:20:36;98129.19;;;18.85;100.00
59531;BME280;45349;48.692;8.186;2023-07-29T02:23:02;98131.19;;;18.90;100.00
59531;BME280;45349;48.692;8.186;2023-07-29T02:25:29;98137.34;;;18.84;100.00
59531;BME280;45349;48.692;8.186;2023-07-29T02:27:56;98134.31;;;18.80;100.00
59531;BME280;45349;48.692;8.186;2023-07-29T02:30:23;98136.75;;;18.82;100.00
59531;BME280;45349;48.692;8.186;2023-07-29T02:32:50;98134.91;;;18.82;100.00
59531;BME280;45349;48.692;8.186;2023-07-29T02:35:17;98137.13;;;18.85;100.00
59531;BME280;45349;48.692;8.186;2023-07-29T02:37:44;98126.06;;;18.95;100.00
59531;BME280;45349;48.692;8.186;2023-07-29T02:40:11;98125.31;;;19.13;100.00
59531;BME280;45349;48.692;8.186;2023-07-29T02:42:38;98122.69;;;19.32;100.00
59531;BME280;45349;48.692;8.186;2023-07-29T02:45:05;98114.94;;;19.30;100.00
59531;BME280;45349;48.692;8.186;2023-07-29T02:47:36;98112.88;;;19.32;100.00
59531;BME280;45349;48.692;8.186;2023-07-29T02:50:03;98107.84;;;19.31;100.00
59531;BME280;45349;48.692;8.186;2023-07-29T02:52:30;98107.25;;;19.29;100.00
59531;BME280;45349;48.692;8.186;2023-07-29T02:54:56;98114.16;;;19.30;100.00
59531;BME280;45349;48.692;8.186;2023-07-29T02:57:23;98145.91;;;19.30;100.00
59531;BME280;45349;48.692;8.186;2023-07-29T02:59:53;98149.63;;;19.22;100.00
59531;BME280;45349;48.692;8.186;2023-07-29T03:02:20;98139.13;;;19.15;100.00
59531;BME280;45349;48.692;8.186;2023-07-29T03:04:52;98141.38;;;19.12;100.00
59531;BME280;45349;48.692;8.186;2023-07-29T03:07:18;98124.19;;;19.02;100.00
59531;BME280;45349;48.692;8.186;2023-07-29T03:09:45;98120.75;;;19.02;100.00
59531;BME280;45349;48.692;8.186;2023-07-29T03:12:12;98115.00;;;18.80;100.00
59531;BME280;45349;48.692;8.186;2023-07-29T03:14:38;98099.19;;;18.73;100.00
59531;BME280;45349;48.692;8.186;2023-07-29T03:17:06;98097.47;;;18.60;100.00
59531;BME280;45349;48.692;8.186;2023-07-29T03:19:33;98096.06;;;18.57;100.00
59531;BME280;45349;48.692;8.186;2023-07-29T03:22:01;98096.72;;;18.53;100.00
59531;BME280;45349;48.692;8.186;2023-07-29T03:24:28;98096.78;;;18.46;100.00
59531;BME280;45349;48.692;8.186;2023-07-29T03:26:55;98105.34;;;18.41;100.00
59531;BME280;45349;48.692;8.186;2023-07-29T03:29:21;98114.53;;;18.39;100.00
59531;BME280;45349;48.692;8.186;2023-07-29T03:31:48;98100.72;;;18.37;100.00
59531;BME280;45349;48.692;8.186;2023-07-29T03:34:15;98109.88;;;18.34;100.00
59531;BME280;45349;48.692;8.186;2023-07-29T03:36:45;98158.84;;;18.37;100.00
59531;BME280;45349;48.692;8.186;2023-07-29T03:39:14;98134.03;;;18.38;100.00
59531;BME280;45349;48.692;8.186;2023-07-29T03:41:41;98156.41;;;18.35;100.00
59531;BME280;45349;48.692;8.186;2023-07-29T03:44:07;98176.34;;;18.31;100.00
59531;BME280;45349;48.692;8.186;2023-07-29T03:46:34;98154.41;;;18.31;100.00
59531;BME280;45349;48.692;8.186;2023-07-29T03:49:02;98129.44;;;18.26;100.00
59531;BME280;45349;48.692;8.186;2023-07-29T03:51:29;98118.22;;;18.31;100.00
59531;BME280;45349;48.692;8.186;2023-07-29T03:53:55;98120.06;;;18.31;100.00
59531;BME280;45349;48.692;8.186;2023-07-29T03:56:23;98128.16;;;18.36;100.00
59531;BME280;45349;48.692;8.186;2023-07-29T03:58:50;98115.56;;;18.38;100.00
59531;BME280;45349;48.692;8.186;2023-07-29T04:01:17;98108.06;;;18.35;100.00
59531;BME280;45349;48.692;8.186;2023-07-29T04:03:44;98108.66;;;18.37;100.00
59531;BME280;45349;48.692;8.186;2023-07-29T04:06:11;98112.25;;;18.42;100.00
59531;BME280;45349;48.692;8.186;2023-07-29T04:08:38;98106.78;;;18.44;100.00
59531;BME280;45349;48.692;8.186;2023-07-29T04:11:04;98100.19;;;18.53;100.00
59531;BME280;45349;48.692;8.186;2023-07-29T04:13:32;98099.53;;;18.58;100.00
59531;BME280;45349;48.692;8.186;2023-07-29T04:15:59;98084.28;;;18.60;100.00
59531;BME280;45349;48.692;8.186;2023-07-29T04:18:27;98090.06;;;18.69;100.00
59531;BME280;45349;48.692;8.186;2023-07-29T04:20:53;98105.56;;;18.65;100.00
59531;BME280;45349;48.692;8.186;2023-07-29T04:23:20;98099.25;;;18.66;100.00
59531;BME280;45349;48.692;8.186;2023-07-29T04:25:47;98102.09;;;18.65;100.00
59531;BME280;45349;48.692;8.186;2023-07-29T04:28:13;98095.38;;;18.69;100.00
59531;BME280;45349;48.692;8.186;2023-07-29T04:30:41;98110.59;;;18.73;100.00
59531;BME280;45349;48.692;8.186;2023-07-29T04:33:08;98104.28;;;18.74;100.00
59531;BME280;45349;48.692;8.186;2023-07-29T04:35:36;98096.78;;;18.71;100.00
59531;BME280;45349;48.692;8.186;2023-07-29T04:38:03;98101.25;;;18.71;100.00
59531;BME280;45349;48.692;8.186;2023-07-29T04:40:32;98115.50;;;18.70;100.00
59531;BME280;45349;48.692;8.186;2023-07-29T04:43:00;98105.19;;;18.62;100.00
59531;BME280;45349;48.692;8.186;2023-07-29T04:45:28;98117.66;;;18.54;100.00
59531;BME280;45349;48.692;8.186;2023-07-29T04:47:56;98107.28;;;18.53;100.00
59531;BME280;45349;48.692;8.186;2023-07-29T04:50:22;98106.59;;;18.64;100.00
59531;BME280;45349;48.692;8.186;2023-07-29T04:52:50;98113.88;;;18.69;100.00
59531;BME280;45349;48.692;8.186;2023-07-29T04:55:18;98111.88;;;18.64;100.00
59531;BME280;45349;48.692;8.186;2023-07-29T04:57:45;98104.59;;;18.59;100.00
59531;BME280;45349;48.692;8.186;2023-07-29T05:00:11;98107.41;;;18.65;100.00
59531;BME280;45349;48.692;8.186;2023-07-29T05:02:38;98110.00;;;18.71;100.00
59531;BME280;45349;48.692;8.186;2023-07-29T05:05:07;98120.66;;;18.83;100.00
59531;BME280;45349;48.692;8.186;2023-07-29T05:07:34;98123.47;;;18.88;100.00
59531;BME280;45349;48.692;8.186;2023-07-29T05:10:00;98117.13;;;18.96;100.00
59531;BME280;45349;48.692;8.186;2023-07-29T05:12:27;98123.81;;;18.99;100.00
59531;BME280;45349;48.692;8.186;2023-07-29T05:14:54;98126.19;;;19.07;100.00
59531;BME280;45349;48.692;8.186;2023-07-29T05:17:21;98129.78;;;19.13;100.00
59531;BME280;45349;48.692;8.186;2023-07-29T05:19:53;98136.34;;;19.29;100.00
59531;BME280;45349;48.692;8.186;2023-07-29T05:22:21;98124.59;;;19.43;100.00
59531;BME280;45349;48.692;8.186;2023-07-29T05:24:51;98126.38;;;19.50;100.00
59531;BME280;45349;48.692;8.186;2023-07-29T05:27:18;98119.22;;;19.50;100.00
59531;BME280;45349;48.692;8.186;2023-07-29T05:29:44;98123.03;;;19.54;100.00
59531;BME280;45349;48.692;8.186;2023-07-29T05:32:11;98124.66;;;19.55;100.00
59531;BME280;45349;48.692;8.186;2023-07-29T05:34:38;98134.13;;;19.63;100.00
59531;BME280;45349;48.692;8.186;2023-07-29T05:37:05;98145.09;;;19.67;100.00
59531;BME280;45349;48.692;8.186;2023-07-29T05:39:33;98140.97;;;19.71;100.00
59531;BME280;45349;48.692;8.186;2023-07-29T05:42:00;98150.09;;;19.75;100.00
59531;BME280;45349;48.692;8.186;2023-07-29T05:44:28;98150.28;;;19.73;100.00
59531;BME280;45349;48.692;8.186;2023-07-29T05:46:55;98149.34;;;19.68;100.00
59531;BME280;45349;48.692;8.186;2023-07-29T05:49:22;98161.34;;;19.70;100.00
59531;BME280;45349;48.692;8.186;2023-07-29T05:51:49;98162.75;;;19.73;100.00
59531;BME280;45349;48.692;8.186;2023-07-29T05:54:18;98168.63;;;19.75;100.00
59531;BME280;45349;48.692;8.186;2023-07-29T05:56:46;98163.03;;;19.65;100.00
59531;BME280;45349;48.692;8.186;2023-07-29T05:59:13;98165.44;;;19.66;100.00
59531;BME280;45349;48.692;8.186;2023-07-29T06:01:39;98181.03;;;19.74;100.00
59531;BME280;45349;48.692;8.186;2023-07-29T06:04:06;98184.66;;;19.80;100.00
59531;BME280;45349;48.692;8.186;2023-07-29T06:06:33;98192.00;;;19.78;100.00
59531;BME280;45349;48.692;8.186;2023-07-29T06:09:00;98196.00;;;19.69;100.00
59531;BME280;45349;48.692;8.186;2023-07-29T06:11:27;98192.44;;;19.56;100.00
59531;BME280;45349;48.692;8.186;2023-07-29T06:13:55;98224.72;;;19.46;100.00
59531;BME280;45349;48.692;8.186;2023-07-29T06:16:21;98206.34;;;19.52;100.00
59531;BME280;45349;48.692;8.186;2023-07-29T06:18:48;98217.59;;;19.47;100.00
59531;BME280;45349;48.692;8.186;2023-07-29T06:21:14;98203.03;;;19.38;100.00
59531;BME280;45349;48.692;8.186;2023-07-29T06:23:42;98209.78;;;19.33;100.00
59531;BME280;45349;48.692;8.186;2023-07-29T06:26:09;98217.06;;;19.38;100.00
59531;BME280;45349;48.692;8.186;2023-07-29T06:28:36;98209.13;;;19.38;100.00
59531;BME280;45349;48.692;8.186;2023-07-29T06:31:03;98204.91;;;19.30;100.00
59531;BME280;45349;48.692;8.186;2023-07-29T06:33:30;98210.22;;;19.30;100.00
59531;BME280;45349;48.692;8.186;2023-07-29T06:35:57;98209.34;;;19.37;100.00
59531;BME280;45349;48.692;8.186;2023-07-29T06:38:23;98209.28;;;19.43;100.00
59531;BME280;45349;48.692;8.186;2023-07-29T06:40:50;98205.69;;;19.56;100.00
59531;BME280;45349;48.692;8.186;2023-07-29T06:43:17;98204.56;;;19.64;100.00
59531;BME280;45349;48.692;8.186;2023-07-29T06:45:44;98212.75;;;19.81;100.00
59531;BME280;45349;48.692;8.186;2023-07-29T06:48:12;98208.97;;;19.96;100.00
59531;BME280;45349;48.692;8.186;2023-07-29T06:50:39;98211.50;;;19.84;100.00
59531;BME280;45349;48.692;8.186;2023-07-29T06:53:06;98212.16;;;19.79;100.00
59531;BME280;45349;48.692;8.186;2023-07-29T06:55:32;98213.50;;;19.70;100.00
59531;BME280;45349;48.692;8.186;2023-07-29T06:57:59;98211.72;;;19.64;100.00
59531;BME280;45349;48.692;8.186;2023-07-29T07:00:25;98210.47;;;19.66;100.00
59531;BME280;45349;48.692;8.186;2023-07-29T07:02:52;98201.88;;;19.71;100.00
59531;BME280;45349;48.692;8.186;2023-07-29T07:05:20;98211.19;;;19.73;100.00
59531;BME280;45349;48.692;8.186;2023-07-29T07:07:47;98215.41;;;19.81;100.00
59531;BME280;45349;48.692;8.186;2023-07-29T07:10:14;98206.00;;;20.04;100.00
59531;BME280;45349;48.692;8.186;2023-07-29T07:12:40;98206.47;;;20.31;100.00
59531;BME280;45349;48.692;8.186;2023-07-29T07:15:08;98195.06;;;20.73;100.00
59531;BME280;45349;48.692;8.186;2023-07-29T07:17:34;98199.97;;;21.00;100.00
59531;BME280;45349;48.692;8.186;2023-07-29T07:20:01;98198.00;;;21.31;99.35
59531;BME280;45349;48.692;8.186;2023-07-29T07:22:29;98200.78;;;21.48;97.13
59531;BME280;45349;48.692;8.186;2023-07-29T07:24:56;98214.03;;;21.84;93.85
59531;BME280;45349;48.692;8.186;2023-07-29T07:27:22;98215.72;;;22.02;95.12
59531;BME280;45349;48.692;8.186;2023-07-29T07:29:53;98217.78;;;22.00;95.14
59531;BME280;45349;48.692;8.186;2023-07-29T07:32:20;98210.59;;;22.12;89.84
59531;BME280;45349;48.692;8.186;2023-07-29T07:34:52;98223.31;;;22.10;90.89
59531;BME280;45349;48.692;8.186;2023-07-29T07:37:19;98216.94;;;21.71;90.93
59531;BME280;45349;48.692;8.186;2023-07-29T07:39:47;98212.84;;;22.04;91.66
59531;BME280;45349;48.692;8.186;2023-07-29T07:42:13;98219.56;;;21.94;92.36
59531;BME280;45349;48.692;8.186;2023-07-29T07:44:40;98221.47;;;22.11;89.19
59531;BME280;45349;48.692;8.186;2023-07-29T07:47:06;98222.03;;;22.13;90.12
59531;BME280;45349;48.692;8.186;2023-07-29T07:49:33;98218.28;;;22.26;90.56
59531;BME280;45349;48.692;8.186;2023-07-29T07:52:00;98217.75;;;22.53;86.15
59531;BME280;45349;48.692;8.186;2023-07-29T07:54:26;98217.75;;;22.53;88.00
59531;BME280;45349;48.692;8.186;2023-07-29T07:56:54;98218.03;;;22.68;88.51
59531;BME280;45349;48.692;8.186;2023-07-29T07:59:20;98218.03;;;23.20;85.41
59531;BME280;45349;48.692;8.186;2023-07-29T08:01:47;98223.31;;;23.54;80.16
59531;BME280;45349;48.692;8.186;2023-07-29T08:04:14;98237.75;;;23.58;82.19
59531;BME280;45349;48.692;8.186;2023-07-29T08:06:40;98236.59;;;23.93;80.12
59531;BME280;45349;48.692;8.186;2023-07-29T08:09:07;98239.16;;;24.27;78.84
59531;BME280;45349;48.692;8.186;2023-07-29T08:11:33;98233.69;;;24.39;76.64
59531;BME280;45349;48.692;8.186;2023-07-29T08:14:02;98235.94;;;24.25;75.92
59531;BME280;45349;48.692;8.186;2023-07-29T08:16:28;98242.41;;;24.29;78.91
59531;BME280;45349;48.692;8.186;2023-07-29T08:18:55;98238.88;;;23.62;81.02
59531;BME280;45349;48.692;8.186;2023-07-29T08:21:21;98245.19;;;23.56;80.78
59531;BME280;45349;48.692;8.186;2023-07-29T08:23:48;98246.38;;;23.65;80.29
59531;BME280;45349;48.692;8.186;2023-07-29T08:26:15;98242.06;;;23.81;79.47
59531;BME280;45349;48.692;8.186;2023-07-29T08:28:42;98230.16;;;23.89;76.85
59531;BME280;45349;48.692;8.186;2023-07-29T08:31:10;98232.28;;;22.96;80.58
59531;BME280;45349;48.692;8.186;2023-07-29T08:33:36;98238.56;;;22.90;81.06
59531;BME280;45349;48.692;8.186;2023-07-29T08:36:03;98241.56;;;22.77;84.26
59531;BME280;45349;48.692;8.186;2023-07-29T08:38:30;98240.63;;;23.00;81.57
59531;BME280;45349;48.692;8.186;2023-07-29T08:41:00;98228.34;;;21.83;87.19
59531;BME280;45349;48.692;8.186;2023-07-29T08:43:32;98231.75;;;22.07;86.36
59531;BME280;45349;48.692;8.186;2023-07-29T08:45:59;98224.41;;;22.26;86.13
59531;BME280;45349;48.692;8.186;2023-07-29T08:48:33;98238.59;;;22.44;85.57
59531;BME280;45349;48.692;8.186;2023-07-29T08:51:04;98228.81;;;22.21;85.58
59531;BME280;45349;48.692;8.186;2023-07-29T08:53:31;98235.81;;;21.98;85.79
59531;BME280;45349;48.692;8.186;2023-07-29T08:55:59;98231.59;;;21.73;86.65
59531;BME280;45349;48.692;8.186;2023-07-29T08:58:26;98236.81;;;21.68;87.25
59531;BME280;45349;48.692;8.186;2023-07-29T09:00:53;98241.31;;;21.56;90.17
59531;BME280;45349;48.692;8.186;2023-07-29T09:03:19;98242.34;;;21.43;89.59
59531;BME280;45349;48.692;8.186;2023-07-29T09:05:48;98232.63;;;21.60;89.72
59531;BME280;45349;48.692;8.186;2023-07-29T09:08:14;98227.38;;;22.01;89.40
59531;BME280;45349;48.692;8.186;2023-07-29T09:10:41;98230.78;;;22.25;85.52
59531;BME280;45349;48.692;8.186;2023-07-29T09:13:08;98229.19;;;22.12;87.79
59531;BME280;45349;48.692;8.186;2023-07-29T09:15:35;98229.81;;;22.32;88.40
59531;BME280;45349;48.692;8.186;2023-07-29T09:18:09;98223.91;;;22.41;86.63
59531;BME280;45349;48.692;8.186;2023-07-29T09:20:36;98215.22;;;22.17;89.08
59531;BME280;45349;48.692;8.186;2023-07-29T09:23:07;98217.94;;;21.93;89.57
59531;BME280;45349;48.692;8.186;2023-07-29T09:25:34;98222.38;;;21.76;89.10
59531;BME280;45349;48.692;8.186;2023-07-29T09:28:01;98262.75;;;21.30;98.07
59531;BME280;45349;48.692;8.186;2023-07-29T09:30:28;98293.38;;;19.85;100.00
59531;BME280;45349;48.692;8.186;2023-07-29T09:32:55;98274.25;;;18.82;100.00
59531;BME280;45349;48.692;8.186;2023-07-29T09:35:23;98241.88;;;18.54;100.00
59531;BME280;45349;48.692;8.186;2023-07-29T09:37:50;98257.66;;;18.68;100.00
59531;BME280;45349;48.692;8.186;2023-07-29T09:40:18;98252.50;;;19.12;100.00
59531;BME280;45349;48.692;8.186;2023-07-29T09:42:49;98252.03;;;19.66;100.00
59531;BME280;45349;48.692;8.186;2023-07-29T09:45:20;98253.03;;;20.39;100.00
59531;BME280;45349;48.692;8.186;2023-07-29T09:47:47;98263.16;;;20.91;100.00
59531;BME280;45349;48.692;8.186;2023-07-29T09:50:15;98256.19;;;21.33;100.00
59531;BME280;45349;48.692;8.186;2023-07-29T09:52:44;98256.53;;;21.24;100.00
59531;BME280;45349;48.692;8.186;2023-07-29T09:55:12;98269.91;;;21.42;100.00
59531;BME280;45349;48.692;8.186;2023-07-29T09:57:40;98265.19;;;21.79;100.00
59531;BME280;45349;48.692;8.186;2023-07-29T10:00:10;98267.75;;;21.86;100.00
59531;BME280;45349;48.692;8.186;2023-07-29T10:02:38;98262.69;;;21.73;100.00
59531;BME280;45349;48.692;8.186;2023-07-29T10:05:06;98261.38;;;21.87;100.00
59531;BME280;45349;48.692;8.186;2023-07-29T10:07:33;98265.09;;;22.27;100.00
59531;BME280;45349;48.692;8.186;2023-07-29T10:10:02;98262.13;;;22.11;98.20
59531;BME280;45349;48.692;8.186;2023-07-29T10:12:30;98268.47;;;22.63;94.14
59531;BME280;45349;48.692;8.186;2023-07-29T10:15:02;98253.41;;;21.75;100.00
59531;BME280;45349;48.692;8.186;2023-07-29T10:17:29;98258.69;;;22.11;100.00
59531;BME280;45349;48.692;8.186;2023-07-29T10:19:56;98263.06;;;22.05;100.00
59531;BME280;45349;48.692;8.186;2023-07-29T10:22:25;98263.06;;;22.17;100.00
59531;BME280;45349;48.692;8.186;2023-07-29T10:24:54;98268.13;;;21.66;100.00
59531;BME280;45349;48.692;8.186;2023-07-29T10:27:24;98270.97;;;21.76;100.00
59531;BME280;45349;48.692;8.186;2023-07-29T10:29:55;98267.81;;;22.03;100.00
59531;BME280;45349;48.692;8.186;2023-07-29T10:32:25;98273.59;;;22.41;100.00
59531;BME280;45349;48.692;8.186;2023-07-29T10:34:53;98275.25;;;22.71;95.92
59531;BME280;45349;48.692;8.186;2023-07-29T10:37:21;98269.59;;;22.67;95.03
59531;BME280;45349;48.692;8.186;2023-07-29T10:39:55;98279.56;;;23.06;94.77
59531;BME280;45349;48.692;8.186;2023-07-29T10:42:22;98292.56;;;23.54;91.32
59531;BME280;45349;48.692;8.186;2023-07-29T10:44:53;98294.97;;;23.72;88.57
59531;BME280;45349;48.692;8.186;2023-07-29T10:47:21;98284.94;;;23.80;87.72
59531;BME280;45349;48.692;8.186;2023-07-29T10:49:56;98282.47;;;23.56;86.38
59531;BME280;45349;48.692;8.186;2023-07-29T10:52:31;98279.06;;;23.78;85.96
59531;BME280;45349;48.692;8.186;2023-07-29T10:54:57;98271.22;;;24.10;87.30
59531;BME280;45349;48.692;8.186;2023-07-29T10:57:35;98275.16;;;24.52;90.65
59531;BME280;45349;48.692;8.186;2023-07-29T11:00:02;98277.00;;;24.74;90.24
59531;BME280;45349;48.692;8.186;2023-07-29T11:02:32;98275.81;;;24.87;81.37
59531;BME280;45349;48.692;8.186;2023-07-29T11:05:05;98280.91;;;24.66;88.03
59531;BME280;45349;48.692;8.186;2023-07-29T11:07:43;98275.38;;;24.73;82.47
59531;BME280;45349;48.692;8.186;2023-07-29T11:10:11;98279.94;;;24.50;80.46
59531;BME280;45349;48.692;8.186;2023-07-29T11:12:43;98275.19;;;24.30;86.79
59531;BME280;45349;48.692;8.186;2023-07-29T11:15:31;98269.25;;;24.00;85.20
59531;BME280;45349;48.692;8.186;2023-07-29T11:18:00;98268.44;;;24.22;84.45
59531;BME280;45349;48.692;8.186;2023-07-29T11:20:29;98271.47;;;24.31;83.16
59531;BME280;45349;48.692;8.186;2023-07-29T11:22:57;98263.28;;;24.38;84.29
59531;BME280;45349;48.692;8.186;2023-07-29T11:25:27;98261.47;;;24.71;85.52
59531;BME280;45349;48.692;8.186;2023-07-29T11:27:55;98256.06;;;24.88;80.14
59531;BME280;45349;48.692;8.186;2023-07-29T11:30:22;98257.97;;;25.30;84.48
59531;BME280;45349;48.692;8.186;2023-07-29T11:32:53;98260.59;;;25.63;77.49
59531;BME280;45349;48.692;8.186;2023-07-29T11:35:19;98259.50;;;25.21;74.20
59531;BME280;45349;48.692;8.186;2023-07-29T11:37:48;98254.50;;;25.30;77.66
59531;BME280;45349;48.692;8.186;2023-07-29T11:40:16;98249.13;;;25.62;76.72
59531;BME280;45349;48.692;8.186;2023-07-29T11:42:43;98260.72;;;25.84;71.57
59531;BME280;45349;48.692;8.186;2023-07-29T11:45:11;98248.81;;;25.59;73.32
59531;BME280;45349;48.692;8.186;2023-07-29T11:47:38;98251.63;;;25.42;68.32
59531;BME280;45349;48.692;8.186;2023-07-29T11:50:07;98255.25;;;25.63;67.27
59531;BME280;45349;48.692;8.186;2023-07-29T11:52:35;98262.09;;;25.91;68.54
59531;BME280;45349;48.692;8.186;2023-07-29T11:55:05;98251.28;;;25.66;70.48
59531;BME280;45349;48.692;8.186;2023-07-29T11:57:34;98250.06;;;25.94;70.59
59531;BME280;45349;48.692;8.186;2023-07-29T12:00:01;98236.31;;;26.28;62.97
59531;BME280;45349;48.692;8.186;2023-07-29T12:02:36;98234.31;;;25.92;69.89
59531;BME280;45349;48.692;8.186;2023-07-29T12:05:03;98232.16;;;25.41;68.71
59531;BME280;45349;48.692;8.186;2023-07-29T12:07:31;98236.66;;;25.41;70.57
59531;BME280;45349;48.692;8.186;2023-07-29T12:09:58;98239.72;;;24.84;69.41
59531;BME280;45349;48.692;8.186;2023-07-29T12:12:26;98235.22;;;24.62;71.29
59531;BME280;45349;48.692;8.186;2023-07-29T12:14:54;98235.34;;;25.05;71.67
59531;BME280;45349;48.692;8.186;2023-07-29T12:17:21;98225.88;;;25.25;70.70
59531;BME280;45349;48.692;8.186;2023-07-29T12:19:54;98235.00;;;25.72;70.18
59531;BME280;45349;48.692;8.186;2023-07-29T12:22:21;98237.19;;;25.86;66.51
59531;BME280;45349;48.692;8.186;2023-07-29T12:24:54;98226.47;;;25.32;65.60
59531;BME280;45349;48.692;8.186;2023-07-29T12:27:21;98238.06;;;26.07;61.71
59531;BME280;45349;48.692;8.186;2023-07-29T12:29:55;98236.13;;;25.87;65.51
59531;BME280;45349;48.692;8.186;2023-07-29T12:32:25;98242.78;;;26.48;62.58
59531;BME280;45349;48.692;8.186;2023-07-29T12:34:54;98228.66;;;26.84;62.09
59531;BME280;45349;48.692;8.186;2023-07-29T12:37:31;98236.31;;;26.33;62.56
59531;BME280;45349;48.692;8.186;2023-07-29T12:39:58;98237.53;;;26.05;61.35
59531;BME280;45349;48.692;8.186;2023-07-29T12:42:25;98225.03;;;26.16;63.48
59531;BME280;45349;48.692;8.186;2023-07-29T12:44:54;98220.16;;;26.07;62.91
59531;BME280;45349;48.692;8.186;2023-07-29T12:47:21;98220.50;;;26.21;62.17
59531;BME280;45349;48.692;8.186;2023-07-29T12:50:12;98213.81;;;26.14;61.07
59531;BME280;45349;48.692;8.186;2023-07-29T12:52:38;98216.53;;;26.65;56.66
59531;BME280;45349;48.692;8.186;2023-07-29T12:55:06;98220.28;;;26.44;57.81
59531;BME280;45349;48.692;8.186;2023-07-29T12:57:34;98213.22;;;26.12;58.40